Time;durP1;ratioP1;P1;durP2;ratioP2;P2;SDS_P1;SDS_P2;PMS_P1;PMS_P2;Temp;Humidity;BMP_temperature;BMP_pressure;BME280_temperature;BME280_humidity;BME280_pressure;Samples;Min_cycle;Max_cycle;Signal;HPM_P1;HPM_P2
2023/07/03 00:00:47;;;;;;;5.35;2.72;;;14.20;99.90;;;;;;5028322;28;20033;-78
2023/07/03 00:03:15;;;;;;;7.28;3.45;;;14.10;99.90;;;;;;5028939;28;20049;-77
2023/07/03 00:05:44;;;;;;;6.85;3.22;;;14.10;99.90;;;;;;5036182;28;20040;-80
2023/07/03 00:08:11;;;;;;;5.53;3.17;;;14.10;99.90;;;;;;5024799;28;20022;-80
2023/07/03 00:10:37;;;;;;;6.70;3.28;;;14.00;99.90;;;;;;5037161;28;20041;-81
2023/07/03 00:13:03;;;;;;;8.25;3.67;;;14.00;99.90;;;;;;5024502;28;20507;-80
2023/07/03 00:15:28;;;;;;;7.10;3.78;;;14.00;99.90;;;;;;5023564;28;20021;-79
2023/07/03 00:17:54;;;;;;;8.55;3.78;;;14.00;99.90;;;;;;5029424;28;20033;-80
2023/07/03 00:20:19;;;;;;;8.07;3.58;;;13.90;99.90;;;;;;5049428;28;20204;-82
2023/07/03 00:22:46;;;;;;;4.85;3.15;;;13.90;99.90;;;;;;5028309;28;20020;-81
2023/07/03 00:25:12;;;;;;;6.60;3.10;;;13.90;99.90;;;;;;5039991;28;20025;-81
2023/07/03 00:27:38;;;;;;;8.15;3.58;;;13.80;99.90;;;;;;5011059;28;20055;-81
2023/07/03 00:30:05;;;;;;;6.75;3.42;;;13.80;99.90;;;;;;5009219;28;20071;-81
2023/07/03 00:32:31;;;;;;;8.63;3.33;;;13.80;99.90;;;;;;5044579;28;20626;-82
2023/07/03 00:34:57;;;;;;;6.45;3.58;;;13.80;99.90;;;;;;5019776;28;20069;-80
2023/07/03 00:37:22;;;;;;;7.55;3.67;;;13.80;99.90;;;;;;5028749;28;20059;-81
2023/07/03 00:39:48;;;;;;;9.43;3.80;;;13.70;99.90;;;;;;5022725;28;20021;-80
2023/07/03 00:42:13;;;;;;;7.35;3.72;;;13.70;99.90;;;;;;5045440;28;20025;-81
2023/07/03 00:44:39;;;;;;;5.03;3.10;;;13.70;99.90;;;;;;5046359;28;20013;-81
2023/07/03 00:47:05;;;;;;;7.75;3.60;;;13.70;99.90;;;;;;5029622;28;20112;-79
2023/07/03 00:49:32;;;;;;;6.30;3.33;;;13.70;99.90;;;;;;5031271;28;20396;-79
2023/07/03 00:51:59;;;;;;;7.20;3.55;;;13.70;99.90;;;;;;5018065;28;20036;-79
2023/07/03 00:54:24;;;;;;;8.65;4.15;;;13.70;99.90;;;;;;5029929;28;20075;-81
2023/07/03 00:56:50;;;;;;;8.35;3.75;;;13.70;99.90;;;;;;5029368;28;20032;-80
2023/07/03 00:59:17;;;;;;;5.72;3.70;;;13.70;99.90;;;;;;5023582;28;20033;-79
2023/07/03 01:01:47;;;;;;;8.10;3.88;;;13.70;99.90;;;;;;5021367;28;20038;-81
2023/07/03 01:04:18;;;;;;;12.30;4.18;;;13.70;99.90;;;;;;5033276;28;20108;-81
2023/07/03 01:06:50;;;;;;;8.32;3.67;;;13.70;99.90;;;;;;5028057;28;20325;-77
2023/07/03 01:09:19;;;;;;;8.13;4.13;;;13.70;99.90;;;;;;5019542;28;20024;-79
2023/07/03 01:11:47;;;;;;;7.55;3.42;;;13.70;99.90;;;;;;5039704;28;20029;-78
2023/07/03 01:14:17;;;;;;;4.97;3.58;;;13.70;99.90;;;;;;5043604;28;20025;-79
2023/07/03 01:16:45;;;;;;;8.68;4.45;;;13.70;99.90;;;;;;5041191;28;20477;-78
2023/07/03 01:19:14;;;;;;;6.65;3.67;;;13.70;99.90;;;;;;5027391;28;20028;-79
2023/07/03 01:22:16;;;;;;;9.10;3.20;;;13.70;99.90;;;;;;5022661;28;20033;-79
2023/07/03 01:24:50;;;;;;;6.65;4.10;;;13.70;99.90;;;;;;5002313;28;20044;-78
2023/07/03 01:27:19;;;;;;;7.20;4.05;;;13.60;99.90;;;;;;5018527;28;20033;-80
2023/07/03 01:29:47;;;;;;;8.32;4.43;;;13.60;99.90;;;;;;5034555;28;20454;-79
2023/07/03 01:32:14;;;;;;;8.73;3.95;;;13.60;99.90;;;;;;5035511;28;20037;-79
2023/07/03 01:34:45;;;;;;;6.47;3.30;;;13.60;99.90;;;;;;5036791;28;20021;-79
2023/07/03 01:37:13;;;;;;;9.25;4.25;;;13.60;99.90;;;;;;5023014;28;20037;-80
2023/07/03 01:39:40;;;;;;;8.38;3.92;;;13.60;99.90;;;;;;5036087;28;20025;-81
2023/07/03 01:42:07;;;;;;;7.25;3.85;;;13.60;99.90;;;;;;5035991;28;20103;-79
2023/07/03 01:44:33;;;;;;;7.38;3.60;;;13.50;99.90;;;;;;5041304;28;20111;-79
2023/07/03 01:47:11;;;;;;;8.18;3.95;;;13.50;99.90;;;;;;5024127;28;20045;-79
2023/07/03 01:49:37;;;;;;;8.25;3.80;;;13.60;99.90;;;;;;5024209;28;20531;-78
2023/07/03 01:52:19;;;;;;;7.90;3.83;;;13.50;99.90;;;;;;5024128;28;20029;-79
2023/07/03 01:55:07;;;;;;;7.55;3.45;;;13.50;99.90;;;;;;5028872;28;20032;-79
2023/07/03 01:57:38;;;;;;;6.25;3.60;;;13.50;99.90;;;;;;5020521;28;20072;-79
2023/07/03 02:00:06;;;;;;;11.60;3.65;;;13.50;99.90;;;;;;5028183;28;20514;-80
2023/07/03 02:02:33;;;;;;;8.05;4.15;;;13.50;99.90;;;;;;5027770;28;20082;-80
2023/07/03 02:05:04;;;;;;;11.77;4.53;;;13.50;99.90;;;;;;5016715;28;20040;-79
2023/07/03 02:07:31;;;;;;;10.25;4.22;;;13.50;99.90;;;;;;5026640;28;20021;-79
2023/07/03 02:09:58;;;;;;;7.15;3.90;;;13.50;99.90;;;;;;5035452;28;20039;-78
2023/07/03 02:12:24;;;;;;;8.65;3.20;;;13.50;99.90;;;;;;5046676;28;20025;-79
2023/07/03 02:14:50;;;;;;;8.75;4.13;;;13.50;99.90;;;;;;5012655;28;20033;-77
2023/07/03 02:17:16;;;;;;;8.02;3.78;;;13.50;99.90;;;;;;5043118;28;20044;-77
2023/07/03 02:19:41;;;;;;;10.20;3.90;;;13.40;99.90;;;;;;5025880;28;20029;-79
2023/07/03 02:22:07;;;;;;;8.90;3.58;;;13.40;99.90;;;;;;5018829;28;20024;-80
2023/07/03 02:24:33;;;;;;;8.57;4.07;;;13.40;99.90;;;;;;5043347;28;20102;-79
2023/07/03 02:26:59;;;;;;;9.07;3.85;;;13.40;99.90;;;;;;5038051;28;20653;-80
2023/07/03 02:29:25;;;;;;;9.32;4.03;;;13.30;99.90;;;;;;5042139;28;20075;-79
2023/07/03 02:31:50;;;;;;;6.43;4.15;;;13.30;99.90;;;;;;5050755;28;20038;-79
2023/07/03 02:34:16;;;;;;;10.50;4.88;;;13.30;99.90;;;;;;5037737;28;20036;-78
2023/07/03 02:36:41;;;;;;;7.75;3.40;;;13.40;99.90;;;;;;5057715;28;20033;-79
2023/07/03 02:39:09;;;;;;;12.30;4.68;;;13.40;99.90;;;;;;5039397;28;20036;-79
2023/07/03 02:41:34;;;;;;;12.30;4.28;;;13.40;99.90;;;;;;5046393;28;20153;-78
2023/07/03 02:44:00;;;;;;;9.10;4.03;;;13.40;99.90;;;;;;5022761;28;20064;-78
2023/07/03 02:46:26;;;;;;;5.15;3.95;;;13.40;99.90;;;;;;5030741;28;20028;-80
2023/07/03 02:48:51;;;;;;;7.90;3.67;;;13.40;99.90;;;;;;5027542;28;20028;-80
2023/07/03 02:51:17;;;;;;;5.95;3.55;;;13.50;99.90;;;;;;5029960;28;20555;-79
2023/07/03 02:53:43;;;;;;;9.07;3.83;;;13.50;99.90;;;;;;5027550;28;20557;-79
2023/07/03 02:56:09;;;;;;;6.50;3.75;;;13.50;99.90;;;;;;5022606;28;20147;-79
2023/07/03 02:58:35;;;;;;;7.47;4.45;;;13.50;99.90;;;;;;5023886;28;20064;-80
2023/07/03 03:01:01;;;;;;;9.20;4.13;;;13.50;99.90;;;;;;5026277;28;20057;-79
2023/07/03 03:03:27;;;;;;;7.75;3.63;;;13.50;99.90;;;;;;5042093;28;20032;-79
2023/07/03 03:05:53;;;;;;;8.15;3.78;;;13.50;99.90;;;;;;5019069;28;20044;-80
2023/07/03 03:08:21;;;;;;;8.38;3.75;;;13.60;99.90;;;;;;5043750;28;20025;-78
2023/07/03 03:10:46;;;;;;;10.35;4.38;;;13.60;99.90;;;;;;5049573;28;20071;-80
2023/07/03 03:13:12;;;;;;;7.93;3.80;;;13.60;99.90;;;;;;5034542;28;20022;-79
2023/07/03 03:15:37;;;;;;;8.88;3.47;;;13.60;99.90;;;;;;5030677;28;20077;-79
2023/07/03 03:18:03;;;;;;;8.95;4.05;;;13.70;99.90;;;;;;5044533;28;20014;-80
2023/07/03 03:20:29;;;;;;;7.85;3.97;;;13.70;99.90;;;;;;5048829;28;20025;-80
2023/07/03 03:22:54;;;;;;;9.52;4.30;;;13.70;99.90;;;;;;5046021;28;20369;-79
2023/07/03 03:25:20;;;;;;;9.38;4.35;;;13.70;99.90;;;;;;5046597;28;20055;-79
2023/07/03 03:27:45;;;;;;;5.20;3.38;;;13.70;99.90;;;;;;5046799;28;20021;-79
2023/07/03 03:30:11;;;;;;;8.65;4.43;;;13.70;99.90;;;;;;5014306;28;20056;-79
2023/07/03 03:32:37;;;;;;;9.18;3.92;;;13.70;99.90;;;;;;5028219;28;20022;-79
2023/07/03 03:35:02;;;;;;;9.95;4.00;;;13.70;99.90;;;;;;5025717;28;20064;-80
2023/07/03 03:37:28;;;;;;;8.52;4.13;;;13.70;99.90;;;;;;5036719;28;20107;-80
2023/07/03 03:39:53;;;;;;;16.95;7.65;;;13.70;99.90;;;;;;5044378;28;20492;-79
2023/07/03 03:42:19;;;;;;;10.95;4.60;;;13.80;99.90;;;;;;5027158;28;20013;-79
2023/07/03 03:44:45;;;;;;;10.25;4.40;;;13.80;99.90;;;;;;5017742;28;20028;-79
2023/07/03 03:47:10;;;;;;;8.32;3.80;;;13.80;99.90;;;;;;5028894;28;20017;-80
2023/07/03 03:49:36;;;;;;;10.10;4.20;;;13.80;99.90;;;;;;5044543;28;20021;-80
2023/07/03 03:52:02;;;;;;;16.35;4.68;;;13.90;99.90;;;;;;5032837;28;20029;-80
2023/07/03 03:54:28;;;;;;;11.80;4.50;;;13.80;99.90;;;;;;5024369;28;20033;-79
2023/07/03 03:56:53;;;;;;;8.20;4.32;;;13.90;99.90;;;;;;5033993;28;20040;-79
2023/07/03 03:59:21;;;;;;;11.02;4.90;;;13.90;99.90;;;;;;5044789;28;20334;-80
2023/07/03 04:01:48;;;;;;;6.65;3.50;;;13.90;99.90;;;;;;5019869;28;20017;-78
2023/07/03 04:04:14;;;;;;;8.13;3.83;;;13.90;99.90;;;;;;5022804;28;20108;-77
2023/07/03 04:06:40;;;;;;;6.85;3.42;;;13.90;99.90;;;;;;5044064;28;20160;-77
2023/07/03 04:09:07;;;;;;;9.23;4.15;;;13.90;99.90;;;;;;5031651;28;20036;-80
2023/07/03 04:11:33;;;;;;;10.07;4.20;;;13.90;99.90;;;;;;5022870;28;20061;-77
2023/07/03 04:13:59;;;;;;;16.45;4.70;;;14.00;99.90;;;;;;5035266;28;20056;-77
2023/07/03 04:16:27;;;;;;;8.63;3.90;;;14.00;99.90;;;;;;5044479;28;20014;-79
2023/07/03 04:18:52;;;;;;;6.55;4.25;;;14.00;99.90;;;;;;5018296;28;20029;-77
2023/07/03 04:21:18;;;;;;;12.27;5.68;;;14.00;99.90;;;;;;5023586;28;20017;-79
2023/07/03 04:23:43;;;;;;;8.27;4.30;;;14.00;99.90;;;;;;5040558;28;20032;-79
2023/07/03 04:26:09;;;;;;;8.65;4.13;;;14.10;99.90;;;;;;5044614;28;20112;-78
2023/07/03 04:28:35;;;;;;;14.48;4.15;;;14.10;99.90;;;;;;5026087;28;20333;-82
2023/07/03 04:31:02;;;;;;;7.15;3.55;;;14.10;99.90;;;;;;5024900;28;20123;-79
2023/07/03 04:33:28;;;;;;;7.03;3.55;;;14.20;99.90;;;;;;5026450;28;20439;-79
2023/07/03 04:35:56;;;;;;;9.05;4.10;;;14.20;99.90;;;;;;5029527;28;20106;-80
2023/07/03 04:38:23;;;;;;;9.68;4.07;;;14.30;99.90;;;;;;5023172;28;20026;-79
2023/07/03 04:40:51;;;;;;;9.23;3.97;;;14.30;99.90;;;;;;5020029;28;20032;-76
2023/07/03 04:43:17;;;;;;;13.77;4.63;;;14.30;99.90;;;;;;5011228;28;20022;-78
2023/07/03 04:45:46;;;;;;;9.50;4.30;;;14.40;99.90;;;;;;5018219;28;20136;-78
2023/07/03 04:48:12;;;;;;;9.77;4.50;;;14.50;99.90;;;;;;5018248;28;20079;-76
2023/07/03 04:50:37;;;;;;;9.15;3.50;;;14.50;99.90;;;;;;5014988;28;20025;-78
2023/07/03 04:53:06;;;;;;;10.65;4.47;;;14.50;99.90;;;;;;5030346;28;20069;-79
2023/07/03 04:55:33;;;;;;;11.07;4.32;;;14.50;99.90;;;;;;5043843;28;20476;-83
2023/07/03 04:57:59;;;;;;;10.15;3.78;;;14.50;99.90;;;;;;5021637;28;20129;-79
2023/07/03 05:00:27;;;;;;;8.63;4.10;;;14.50;99.90;;;;;;5027437;28;20033;-78
2023/07/03 05:02:56;;;;;;;10.88;4.43;;;14.50;99.90;;;;;;5017520;28;20534;-81
2023/07/03 05:05:21;;;;;;;13.63;4.72;;;14.50;99.90;;;;;;5029521;28;20083;-81
2023/07/03 05:07:47;;;;;;;9.85;3.80;;;14.50;99.90;;;;;;5026400;28;20484;-80
2023/07/03 05:10:15;;;;;;;7.65;3.85;;;14.50;99.90;;;;;;5029909;28;20044;-81
2023/07/03 05:12:41;;;;;;;12.38;4.65;;;14.60;99.90;;;;;;5024873;28;20438;-80
2023/07/03 05:15:08;;;;;;;12.88;4.45;;;14.70;99.90;;;;;;5022563;28;20021;-80
2023/07/03 05:17:35;;;;;;;7.72;4.13;;;14.70;99.90;;;;;;5025305;28;20680;-82
2023/07/03 05:20:01;;;;;;;14.25;6.10;;;14.70;99.90;;;;;;5026134;28;20123;-80
2023/07/03 05:22:27;;;;;;;9.70;4.20;;;14.80;99.90;;;;;;5028598;28;20504;-80
2023/07/03 05:24:55;;;;;;;7.63;4.03;;;14.80;99.90;;;;;;5043414;28;20103;-79
2023/07/03 05:27:20;;;;;;;10.48;5.25;;;14.90;99.90;;;;;;5029219;28;20056;-79
2023/07/03 05:29:46;;;;;;;10.82;4.47;;;14.90;99.90;;;;;;5015350;28;20068;-80
2023/07/03 05:32:11;;;;;;;10.05;4.50;;;15.00;99.90;;;;;;5038060;28;20408;-78
2023/07/03 05:34:38;;;;;;;11.10;4.22;;;15.00;99.90;;;;;;5019955;28;20071;-80
2023/07/03 05:37:05;;;;;;;12.23;5.15;;;15.10;99.90;;;;;;5042554;28;20013;-77
2023/07/03 05:39:31;;;;;;;8.93;3.78;;;15.20;99.90;;;;;;5029329;28;20028;-80
2023/07/03 05:41:59;;;;;;;8.68;4.43;;;15.30;99.90;;;;;;5029622;28;20078;-81
2023/07/03 05:44:25;;;;;;;10.85;4.03;;;15.40;99.90;;;;;;5038073;28;20111;-79
2023/07/03 05:46:51;;;;;;;9.68;4.10;;;15.40;99.90;;;;;;5030556;28;20025;-80
2023/07/03 05:49:16;;;;;;;8.35;4.15;;;15.60;99.90;;;;;;5022923;28;20025;-79
2023/07/03 05:51:42;;;;;;;8.15;3.92;;;15.70;99.90;;;;;;5026536;28;20017;-79
2023/07/03 05:54:07;;;;;;;10.38;4.15;;;15.80;99.90;;;;;;5042492;28;20103;-81
2023/07/03 05:56:33;;;;;;;8.40;4.63;;;15.80;99.90;;;;;;5030161;28;20337;-79
2023/07/03 05:58:58;;;;;;;9.93;3.90;;;15.90;99.90;;;;;;5028220;28;20534;-79
2023/07/03 06:01:24;;;;;;;7.20;3.50;;;15.90;99.90;;;;;;5011975;28;20029;-78
2023/07/03 06:03:49;;;;;;;9.73;4.20;;;16.00;99.90;;;;;;5021598;28;20013;-79
2023/07/03 06:06:16;;;;;;;7.72;3.42;;;16.10;99.90;;;;;;5022439;28;20021;-80
2023/07/03 06:08:41;;;;;;;6.75;3.42;;;16.20;99.90;;;;;;5048504;28;20079;-78
2023/07/03 06:11:07;;;;;;;10.60;4.32;;;16.20;99.90;;;;;;5019092;28;20030;-78
2023/07/03 06:13:32;;;;;;;5.13;3.10;;;16.30;99.90;;;;;;5018985;28;20061;-79
2023/07/03 06:15:58;;;;;;;7.75;3.97;;;16.20;99.90;;;;;;5045355;28;20032;-79
2023/07/03 06:18:24;;;;;;;9.10;3.72;;;16.20;99.90;;;;;;5037742;28;20067;-80
2023/07/03 06:20:49;;;;;;;8.13;3.75;;;16.20;99.90;;;;;;5023707;28;20029;-79
2023/07/03 06:23:15;;;;;;;9.25;3.60;;;16.30;99.90;;;;;;5022265;28;20017;-78
2023/07/03 06:25:41;;;;;;;5.57;3.08;;;16.20;99.90;;;;;;5028779;28;20155;-77
2023/07/03 06:28:07;;;;;;;11.88;3.10;;;16.20;99.90;;;;;;5042795;28;20536;-79
2023/07/03 06:30:32;;;;;;;7.55;3.40;;;16.20;99.90;;;;;;5038550;28;20542;-79
2023/07/03 06:32:58;;;;;;;7.22;3.83;;;16.20;99.90;;;;;;5027674;28;20021;-78
2023/07/03 06:35:24;;;;;;;8.00;3.30;;;16.10;99.90;;;;;;5024393;28;20125;-80
2023/07/03 06:37:52;;;;;;;7.38;2.88;;;16.20;99.90;;;;;;5015815;28;20053;-78
2023/07/03 06:40:19;;;;;;;8.77;3.17;;;16.20;99.90;;;;;;5039423;28;20021;-78
2023/07/03 06:42:45;;;;;;;5.45;2.35;;;16.40;99.90;;;;;;5037936;28;20424;-79
2023/07/03 06:45:11;;;;;;;6.93;3.25;;;16.60;99.90;;;;;;5026146;28;20021;-80
2023/07/03 06:47:37;;;;;;;11.13;2.92;;;16.80;99.90;;;;;;5026296;28;20017;-77
2023/07/03 06:50:03;;;;;;;8.20;2.90;;;16.90;99.90;;;;;;5019545;28;20067;-81
2023/07/03 06:52:29;;;;;;;8.00;2.90;;;16.90;99.90;;;;;;5028230;28;20512;-80
2023/07/03 06:54:54;;;;;;;5.32;2.95;;;17.00;99.90;;;;;;5026857;28;20029;-79
2023/07/03 06:57:20;;;;;;;8.95;2.88;;;17.00;99.90;;;;;;5048785;28;20040;-80
2023/07/03 06:59:45;;;;;;;8.40;4.00;;;17.00;99.90;;;;;;5027622;28;20108;-81
2023/07/03 07:02:11;;;;;;;13.98;3.17;;;16.90;99.90;;;;;;5042603;28;20094;-80
2023/07/03 07:04:37;;;;;;;7.32;3.13;;;16.90;99.90;;;;;;5022682;28;20109;-82
2023/07/03 07:07:02;;;;;;;13.13;2.88;;;16.90;99.90;;;;;;5043814;28;20028;-80
2023/07/03 07:09:28;;;;;;;7.78;2.63;;;17.00;99.90;;;;;;5032949;28;20033;-80
2023/07/03 07:11:54;;;;;;;9.27;3.28;;;17.00;99.90;;;;;;5022570;28;20028;-79
2023/07/03 07:14:19;;;;;;;4.25;2.10;;;17.10;99.90;;;;;;5026784;28;20045;-80
2023/07/03 07:16:45;;;;;;;6.63;2.58;;;17.30;99.90;;;;;;5048713;28;20035;-80
2023/07/03 07:19:11;;;;;;;9.43;2.72;;;17.60;99.90;;;;;;5028119;28;20036;-78
2023/07/03 07:21:41;;;;;;;8.93;3.15;;;17.80;99.90;;;;;;5016350;28;20160;-77
2023/07/03 07:24:22;;;;;;;4.78;2.33;;;18.00;99.90;;;;;;5027210;28;20021;-81
2023/07/03 07:26:48;;;;;;;3.60;2.35;;;18.20;99.90;;;;;;5045816;28;20024;-75
2023/07/03 07:29:14;;;;;;;6.40;2.45;;;18.40;99.90;;;;;;5037739;28;20064;-80
2023/07/03 07:31:40;;;;;;;4.55;2.03;;;18.30;99.90;;;;;;5023444;28;20068;-81
2023/07/03 07:34:07;;;;;;;5.95;2.30;;;18.20;99.90;;;;;;5026713;28;20034;-78
2023/07/03 07:36:34;;;;;;;4.75;2.05;;;18.10;99.90;;;;;;5026646;28;20144;-77
2023/07/03 07:39:01;;;;;;;5.35;1.92;;;18.00;99.90;;;;;;5027041;28;20116;-75
2023/07/03 07:41:28;;;;;;;5.97;2.55;;;17.70;99.90;;;;;;5029622;28;20021;-79
2023/07/03 07:43:55;;;;;;;9.23;2.25;;;17.60;99.90;;;;;;5046894;28;20083;-77
2023/07/03 07:46:25;;;;;;;6.80;1.70;;;17.50;99.90;;;;;;5031767;28;20025;-79
2023/07/03 07:48:50;;;;;;;5.45;1.67;;;17.50;99.90;;;;;;5035701;28;20017;-77
2023/07/03 07:51:19;;;;;;;8.93;2.00;;;17.50;99.90;;;;;;5039086;28;20032;-79
2023/07/03 07:53:44;;;;;;;3.72;1.63;;;17.70;99.90;;;;;;5026870;28;20033;-77
2023/07/03 07:56:11;;;;;;;4.95;2.25;;;18.10;99.90;;;;;;5048595;28;20040;-78
2023/07/03 07:58:37;;;;;;;7.55;2.03;;;18.30;99.90;;;;;;5030900;28;20033;-78
2023/07/03 08:01:03;;;;;;;7.28;2.45;;;18.50;99.90;;;;;;5031957;28;20037;-78
2023/07/03 08:03:29;;;;;;;6.32;2.13;;;18.70;99.90;;;;;;5052246;28;20029;-79
2023/07/03 08:06:02;;;;;;;8.45;1.95;;;18.70;99.90;;;;;;5047326;28;20051;-78
2023/07/03 08:08:28;;;;;;;7.07;1.88;;;18.70;99.90;;;;;;5031400;28;20036;-79
2023/07/03 08:10:56;;;;;;;8.10;2.17;;;18.60;99.90;;;;;;5029046;28;20183;-77
2023/07/03 08:13:21;;;;;;;7.50;1.92;;;18.80;99.90;;;;;;5037990;28;20056;-78
2023/07/03 08:15:47;;;;;;;4.10;1.90;;;18.90;99.90;;;;;;5042315;28;20021;-79
2023/07/03 08:18:15;;;;;;;4.78;1.83;;;18.80;99.90;;;;;;5036097;28;20455;-79
2023/07/03 08:20:40;;;;;;;5.03;1.90;;;18.90;99.90;;;;;;5048277;28;20567;-79
2023/07/03 08:23:06;;;;;;;7.15;2.15;;;19.00;99.90;;;;;;5020862;28;20536;-80
2023/07/03 08:25:31;;;;;;;5.85;2.38;;;19.00;99.90;;;;;;5044923;28;20526;-79
2023/07/03 08:27:57;;;;;;;8.43;2.60;;;18.90;99.90;;;;;;5026686;28;20104;-79
2023/07/03 08:30:23;;;;;;;8.20;1.70;;;18.70;99.90;;;;;;5012682;28;20057;-80
2023/07/03 08:32:48;;;;;;;10.80;3.35;;;18.50;99.90;;;;;;5025375;28;20021;-79
2023/07/03 08:35:16;;;;;;;5.60;2.05;;;18.40;99.90;;;;;;5039015;28;20028;-77
2023/07/03 08:37:42;;;;;;;4.47;1.48;;;18.40;99.90;;;;;;5025492;28;20311;-78
2023/07/03 08:40:08;;;;;;;8.70;1.88;;;18.60;99.90;;;;;;5050004;28;20086;-79
2023/07/03 08:42:40;;;;;;;5.90;2.13;;;18.90;99.90;;;;;;5025867;28;20021;-78
2023/07/03 08:45:08;;;;;;;3.67;1.65;;;19.20;99.90;;;;;;5006198;28;20552;-78
2023/07/03 08:47:35;;;;;;;4.15;1.50;;;19.50;99.90;;;;;;5036805;28;20018;-80
2023/07/03 08:50:03;;;;;;;8.82;2.55;;;19.90;99.90;;;;;;5041140;28;20075;-79
2023/07/03 08:52:39;;;;;;;4.68;2.13;;;20.10;99.70;;;;;;5028581;28;20113;-77
2023/07/03 08:55:07;;;;;;;4.72;2.05;;;20.10;98.90;;;;;;5020677;28;20025;-80
2023/07/03 08:57:35;;;;;;;6.95;1.77;;;20.30;99.90;;;;;;5020708;28;20037;-78
2023/07/03 09:00:05;;;;;;;5.68;2.05;;;20.30;99.60;;;;;;5037725;28;20036;-79
2023/07/03 09:02:49;;;;;;;4.68;2.00;;;20.20;99.20;;;;;;5018310;28;20045;-78
2023/07/03 09:05:50;;;;;;;5.10;1.77;;;20.00;98.90;;;;;;5021339;28;20029;-78
2023/07/03 09:08:23;;;;;;;6.00;2.03;;;19.70;99.90;;;;;;5023779;28;20028;-80
2023/07/03 09:10:50;;;;;;;2.75;1.13;;;19.60;99.90;;;;;;5046023;28;20025;-78
2023/07/03 09:13:22;;;;;;;5.35;1.67;;;19.80;99.90;;;;;;5002639;28;20037;-81
2023/07/03 09:16:02;;;;;;;6.10;1.50;;;20.00;99.60;;;;;;5024824;28;20499;-79
2023/07/03 09:18:44;;;;;;;5.32;1.77;;;20.10;98.70;;;;;;5016119;28;20353;-78
2023/07/03 09:21:09;;;;;;;5.50;1.60;;;20.30;99.10;;;;;;5046622;28;20029;-79
2023/07/03 09:24:18;;;;;;;3.60;1.42;;;20.40;98.60;;;;;;5022697;28;20041;-78
2023/07/03 09:26:50;;;;;;;3.40;1.30;;;20.30;97.40;;;;;;5030186;28;20029;-80
2023/07/03 09:29:15;;;;;;;4.10;1.40;;;20.00;98.80;;;;;;5038843;28;20511;-78
2023/07/03 09:31:41;;;;;;;3.25;1.63;;;19.70;97.70;;;;;;5038765;28;20029;-78
2023/07/03 09:34:08;;;;;;;4.80;1.45;;;19.50;98.80;;;;;;5030735;28;20866;-78
2023/07/03 09:36:37;;;;;;;6.07;1.88;;;19.30;98.90;;;;;;5045932;28;20063;-80
2023/07/03 09:39:14;;;;;;;4.57;1.10;;;19.30;99.30;;;;;;5035530;28;20039;-78
2023/07/03 09:41:41;;;;;;;2.25;1.17;;;19.10;99.90;;;;;;5026232;28;20025;-80
2023/07/03 09:44:14;;;;;;;2.00;1.10;;;19.00;99.90;;;;;;5020804;28;20099;-82
2023/07/03 09:46:41;;;;;;;4.63;1.35;;;18.80;99.90;;;;;;5046897;28;21756;-79
2023/07/03 09:49:28;;;;;;;1.33;0.68;;;18.80;99.90;;;;;;5023940;28;20017;-77
2023/07/03 09:51:57;;;;;;;4.47;1.25;;;19.00;99.20;;;;;;5042070;28;20033;-78
2023/07/03 09:54:26;;;;;;;2.08;1.00;;;19.10;99.70;;;;;;5013905;28;20026;-78
2023/07/03 09:56:52;;;;;;;3.80;1.27;;;19.30;98.60;;;;;;5037837;28;20087;-79
2023/07/03 09:59:19;;;;;;;2.33;0.90;;;19.50;99.70;;;;;;5039479;28;20049;-78
2023/07/03 10:01:46;;;;;;;3.92;1.48;;;19.60;98.60;;;;;;5024421;28;20079;-79
2023/07/03 10:04:15;;;;;;;1.50;0.88;;;19.50;99.70;;;;;;5026931;28;20048;-79
2023/07/03 10:06:57;;;;;;;4.72;1.40;;;19.50;99.90;;;;;;5035588;28;20017;-79
2023/07/03 10:09:29;;;;;;;5.35;1.40;;;19.40;99.90;;;;;;5045887;28;20044;-78
2023/07/03 10:12:04;;;;;;;5.43;1.70;;;19.50;99.90;;;;;;5018314;28;20025;-79
2023/07/03 10:14:52;;;;;;;6.43;1.75;;;19.60;99.90;;;;;;5006883;28;20112;-78
2023/07/03 10:17:30;;;;;;;2.92;1.13;;;19.90;99.90;;;;;;5040298;28;20021;-79
2023/07/03 10:20:00;;;;;;;4.05;1.20;;;19.90;99.20;;;;;;5022426;28;20055;-78
2023/07/03 10:22:26;;;;;;;2.45;0.95;;;19.60;99.90;;;;;;5027778;28;20017;-79
2023/07/03 10:24:55;;;;;;;3.60;1.13;;;19.30;99.90;;;;;;5041464;28;20071;-81
2023/07/03 10:27:24;;;;;;;6.13;1.75;;;18.90;99.90;;;;;;5028459;28;20604;-77
2023/07/03 10:29:53;;;;;;;5.57;1.52;;;18.60;99.90;;;;;;5015854;28;20017;-78
2023/07/03 10:32:20;;;;;;;5.03;1.33;;;18.20;99.90;;;;;;5034387;28;20040;-78
2023/07/03 10:35:23;;;;;;;3.97;1.73;;;18.00;99.90;;;;;;5023553;28;20503;-77
2023/07/03 10:38:02;;;;;;;5.32;1.70;;;17.70;99.90;;;;;;5014500;28;20060;-78
2023/07/03 10:40:37;;;;;;;3.08;1.20;;;17.20;99.90;;;;;;5047169;28;20032;-78
2023/07/03 10:43:05;;;;;;;1.63;0.93;;;16.90;99.90;;;;;;5037872;28;20132;-78
2023/07/03 10:45:34;;;;;;;3.75;1.20;;;16.70;99.90;;;;;;5021512;28;20029;-78
2023/07/03 10:48:25;;;;;;;4.00;0.73;;;16.50;99.90;;;;;;5015628;28;20393;-80
2023/07/03 10:51:20;;;;;;;2.90;1.00;;;16.20;99.90;;;;;;5037999;28;20520;-79
2023/07/03 10:53:55;;;;;;;2.10;0.80;;;16.10;99.90;;;;;;5049205;28;20430;-78
2023/07/03 10:56:44;;;;;;;2.35;0.88;;;16.00;99.90;;;;;;5018367;28;20021;-78
2023/07/03 10:59:17;;;;;;;2.45;0.80;;;16.00;99.90;;;;;;5023973;28;20029;-78
2023/07/03 11:01:48;;;;;;;2.35;0.60;;;16.00;99.90;;;;;;5031108;28;20037;-80
2023/07/03 11:04:21;;;;;;;0.93;0.57;;;16.10;99.90;;;;;;5018320;28;20117;-79
2023/07/03 11:07:09;;;;;;;1.65;0.65;;;16.10;99.90;;;;;;5022892;28;20024;-78
2023/07/03 11:09:57;;;;;;;4.05;1.23;;;16.20;99.90;;;;;;5049646;28;20021;-80
2023/07/03 11:12:41;;;;;;;1.52;1.05;;;16.30;99.90;;;;;;5020780;28;20091;-80
2023/07/03 11:15:13;;;;;;;1.27;0.80;;;16.30;99.90;;;;;;5039358;28;20025;-80
2023/07/03 11:17:56;;;;;;;1.42;1.00;;;16.40;99.90;;;;;;5027987;28;20033;-80
2023/07/03 11:20:27;;;;;;;2.15;0.77;;;16.60;99.90;;;;;;5021263;28;20026;-79
2023/07/03 11:23:06;;;;;;;1.83;0.70;;;16.80;99.90;;;;;;5041916;28;20029;-80
2023/07/03 11:25:40;;;;;;;1.63;0.73;;;17.00;99.90;;;;;;5026552;28;20518;-81
2023/07/03 11:28:19;;;;;;;6.15;1.35;;;17.20;99.90;;;;;;5051927;28;20025;-80
2023/07/03 11:30:46;;;;;;;2.88;0.88;;;17.40;99.90;;;;;;5025618;28;20044;-80
2023/07/03 11:33:13;;;;;;;3.42;1.10;;;17.50;99.90;;;;;;5047664;28;20029;-81
2023/07/03 11:35:50;;;;;;;3.92;0.98;;;17.60;99.90;;;;;;5021660;28;20078;-80
2023/07/03 11:38:18;;;;;;;2.17;1.02;;;17.60;99.90;;;;;;5045982;28;20017;-80
2023/07/03 11:40:55;;;;;;;2.95;1.02;;;17.70;99.90;;;;;;5050257;28;20025;-80
2023/07/03 11:43:33;;;;;;;3.28;1.00;;;17.80;99.90;;;;;;5034344;28;20124;-80
2023/07/03 11:45:58;;;;;;;2.65;0.90;;;18.00;99.90;;;;;;5019385;28;20096;-80
2023/07/03 11:48:28;;;;;;;3.35;0.90;;;18.00;99.90;;;;;;5029541;28;20036;-79
2023/07/03 11:51:02;;;;;;;4.10;1.27;;;17.90;99.90;;;;;;5020944;28;20041;-79
2023/07/03 11:53:44;;;;;;;3.70;1.30;;;18.00;99.90;;;;;;5048090;28;20033;-76
2023/07/03 11:56:39;;;;;;;4.65;1.08;;;18.20;99.90;;;;;;5035857;28;20037;-79
2023/07/03 11:59:25;;;;;;;4.25;1.25;;;18.20;99.90;;;;;;5025486;28;20028;-81
2023/07/03 12:01:53;;;;;;;4.32;0.95;;;18.10;99.90;;;;;;5044768;28;20044;-80
2023/07/03 12:04:43;;;;;;;3.40;0.93;;;18.00;99.90;;;;;;5057045;28;20032;-78
2023/07/03 12:07:10;;;;;;;4.30;0.82;;;17.50;99.90;;;;;;5028221;28;20379;-80
2023/07/03 12:09:36;;;;;;;2.05;1.40;;;17.20;99.90;;;;;;5034295;28;20013;-79
2023/07/03 12:12:06;;;;;;;2.70;0.88;;;16.80;99.90;;;;;;5028387;28;20101;-79
2023/07/03 12:14:53;;;;;;;0.95;0.30;;;16.50;99.90;;;;;;5024027;28;20037;-78
2023/07/03 12:17:20;;;;;;;1.25;0.70;;;16.30;99.90;;;;;;5030106;28;20024;-78
2023/07/03 12:19:47;;;;;;;1.98;0.77;;;16.10;99.90;;;;;;5025859;28;20032;-79
2023/07/03 12:22:15;;;;;;;2.65;0.70;;;15.90;99.90;;;;;;5049611;28;20017;-80
2023/07/03 12:24:41;;;;;;;2.08;0.60;;;15.80;99.90;;;;;;5022194;28;20045;-81
2023/07/03 12:27:08;;;;;;;1.17;0.60;;;15.80;99.90;;;;;;5050836;28;20021;-79
2023/07/03 12:29:36;;;;;;;1.10;0.50;;;15.90;99.90;;;;;;5028260;28;20028;-80
2023/07/03 12:32:07;;;;;;;0.60;0.60;;;15.90;99.90;;;;;;5024003;28;20037;-81
2023/07/03 12:34:36;;;;;;;0.68;0.50;;;16.00;99.90;;;;;;5028835;28;20088;-80
2023/07/03 12:37:08;;;;;;;1.25;0.70;;;16.20;99.90;;;;;;5030874;28;20025;-80
2023/07/03 12:39:34;;;;;;;3.97;0.77;;;16.30;99.90;;;;;;5037980;28;20036;-77
2023/07/03 12:42:08;;;;;;;2.28;1.05;;;16.40;99.90;;;;;;5034141;28;20029;-80
2023/07/03 12:44:34;;;;;;;3.55;0.95;;;16.60;99.90;;;;;;5024417;28;20515;-81
2023/07/03 12:47:09;;;;;;;2.83;0.60;;;16.70;99.90;;;;;;5025087;28;20025;-80
2023/07/03 12:49:55;;;;;;;3.38;1.10;;;16.80;99.90;;;;;;5018019;28;20125;-81
2023/07/03 12:52:22;;;;;;;1.77;0.70;;;16.90;99.90;;;;;;5027041;28;20524;-80
2023/07/03 12:54:48;;;;;;;9.07;4.55;;;16.90;99.90;;;;;;5046758;28;20171;-80